createdAt,value
2018-06-11T00:00:45.224Z,8.53
2018-06-11T00:01:50.641Z,10.60
2018-06-11T00:02:56.049Z,9.03
2018-06-11T00:04:01.928Z,12.87
2018-06-11T00:05:07.397Z,10.63
2018-06-11T00:06:12.833Z,11.13
2018-06-11T00:07:18.283Z,21.63
2018-06-11T00:08:23.767Z,10.40
2018-06-11T00:09:29.172Z,12.40
2018-06-11T00:10:34.645Z,10.47
2018-06-11T00:11:40.316Z,10.70
2018-06-11T00:12:45.715Z,12.67
2018-06-11T00:13:51.105Z,9.93
2018-06-11T00:14:56.208Z,13.67
2018-06-11T00:16:01.542Z,14.63
2018-06-11T00:17:06.988Z,12.90
2018-06-11T00:18:12.458Z,10.13
2018-06-11T00:19:17.893Z,8.40
2018-06-11T00:20:23.434Z,12.10
2018-06-11T00:21:28.910Z,13.00
2018-06-11T00:22:34.577Z,11.07
2018-06-11T00:23:40.055Z,11.97
2018-06-11T00:24:45.445Z,12.60
2018-06-11T00:25:50.850Z,12.17
2018-06-11T00:26:56.281Z,12.20
2018-06-11T00:28:01.698Z,10.70
2018-06-11T00:29:07.647Z,12.00
2018-06-11T00:30:13.057Z,11.27
2018-06-11T00:31:18.476Z,10.87
2018-06-11T00:32:23.885Z,11.30
2018-06-11T00:33:29.278Z,11.97
2018-06-11T00:34:34.706Z,12.40
2018-06-11T00:35:40.106Z,10.70
2018-06-11T00:36:45.525Z,14.73
2018-06-11T00:37:50.949Z,10.10
2018-06-11T00:38:56.395Z,11.33
2018-06-11T00:40:02.153Z,12.80
2018-06-11T00:41:07.587Z,14.30
2018-06-11T00:42:13.070Z,13.53
2018-06-11T00:43:18.465Z,11.67
2018-06-11T00:44:23.988Z,11.83
2018-06-11T00:45:29.745Z,14.37
2018-06-11T00:46:35.220Z,12.70
2018-06-11T00:47:40.765Z,11.10
2018-06-11T00:48:46.153Z,12.20
2018-06-11T00:49:51.583Z,12.27
2018-06-11T00:50:57.154Z,13.23
2018-06-11T00:52:02.545Z,12.07
2018-06-11T00:53:07.988Z,12.67
2018-06-11T00:54:13.401Z,12.23
2018-06-11T00:55:18.829Z,16.80
2018-06-11T00:56:24.289Z,15.40
2018-06-11T00:57:29.751Z,14.40
2018-06-11T00:58:35.461Z,13.47
2018-06-11T00:59:40.861Z,12.83
2018-06-11T01:00:46.305Z,14.83
2018-06-11T01:01:52.407Z,11.93
2018-06-11T01:02:57.808Z,12.90
2018-06-11T01:04:03.626Z,14.33
2018-06-11T01:05:09.042Z,20.60
2018-06-11T01:06:14.468Z,14.00
2018-06-11T01:07:19.998Z,14.80
2018-06-11T01:08:25.569Z,17.10
2018-06-11T01:09:30.970Z,14.50
2018-06-11T01:10:36.410Z,16.10
2018-06-11T01:11:41.807Z,16.53
2018-06-11T01:12:47.230Z,11.90
2018-06-11T01:13:52.313Z,13.80
2018-06-11T01:14:57.725Z,14.17
2018-06-11T01:16:03.159Z,16.13
2018-06-11T01:17:08.563Z,12.47
2018-06-11T01:18:13.995Z,13.90
2018-06-11T01:19:19.177Z,15.20
2018-06-11T01:20:24.527Z,13.77
2018-06-11T01:21:30.013Z,14.03
2018-06-11T01:22:35.475Z,15.33
2018-06-11T01:23:40.893Z,20.13
2018-06-11T01:24:46.305Z,12.67
2018-06-11T01:25:51.757Z,15.67
2018-06-11T01:26:57.184Z,15.53
2018-06-11T01:28:02.788Z,13.07
2018-06-11T01:29:08.196Z,16.60
2018-06-11T01:30:13.833Z,15.30
2018-06-11T01:31:19.441Z,16.03
2018-06-11T01:32:24.926Z,12.90
2018-06-11T01:33:30.367Z,14.50
2018-06-11T01:34:35.804Z,16.73
2018-06-11T01:35:41.336Z,12.53
2018-06-11T01:36:47.095Z,16.80
2018-06-11T01:37:52.534Z,15.30
2018-06-11T01:38:58.049Z,16.80
2018-06-11T01:40:03.528Z,14.30
2018-06-11T01:41:08.969Z,15.40
2018-06-11T01:42:14.452Z,15.70
2018-06-11T01:43:20.310Z,17.23
2018-06-11T01:44:25.738Z,14.90
2018-06-11T01:45:31.171Z,14.27
2018-06-11T01:46:36.657Z,15.10
2018-06-11T01:47:42.081Z,14.67
2018-06-11T01:48:47.718Z,19.40
2018-06-11T01:49:53.139Z,15.20
2018-06-11T01:50:58.553Z,14.50
2018-06-11T01:52:03.991Z,19.07
2018-06-11T01:53:09.471Z,15.73
2018-06-11T01:54:14.912Z,15.40
2018-06-11T01:55:20.359Z,15.00
2018-06-11T01:56:25.988Z,14.83
2018-06-11T01:57:31.468Z,13.87
2018-06-11T01:58:36.924Z,18.90
2018-06-11T01:59:42.340Z,24.40
2018-06-11T02:00:47.762Z,16.40
2018-06-11T02:01:54.726Z,14.20
2018-06-11T02:03:01.434Z,19.20
2018-06-11T02:04:07.799Z,17.63
2018-06-11T02:05:13.229Z,15.80
2018-06-11T02:06:18.665Z,19.67
2018-06-11T02:07:24.110Z,17.20
2018-06-11T02:08:29.574Z,18.33
2018-06-11T02:09:35.098Z,16.03
2018-06-11T02:10:40.509Z,25.40
2018-06-11T02:11:45.933Z,19.07
2018-06-11T02:12:51.407Z,19.60
2018-06-11T02:13:56.827Z,18.60
2018-06-11T02:15:02.284Z,21.23
2018-06-11T02:16:08.021Z,14.87
2018-06-11T02:17:13.580Z,16.67
2018-06-11T02:18:19.026Z,17.67
2018-06-11T02:19:24.470Z,19.30
2018-06-11T02:20:30.008Z,18.30
2018-06-11T02:21:35.461Z,17.60
2018-06-11T02:22:40.937Z,15.53
2018-06-11T02:23:46.386Z,16.50
2018-06-11T02:24:51.816Z,15.17
2018-06-11T02:25:57.469Z,17.53
2018-06-11T02:27:02.907Z,16.70
2018-06-11T02:28:08.328Z,14.37
2018-06-11T02:29:13.820Z,24.43
2018-06-11T02:30:19.235Z,16.33
2018-06-11T02:31:24.865Z,17.73
2018-06-11T02:32:30.266Z,16.40
2018-06-11T02:33:35.686Z,18.63
2018-06-11T02:34:41.121Z,16.73
2018-06-11T02:35:46.287Z,18.53
2018-06-11T02:36:51.655Z,15.87
2018-06-11T02:37:57.504Z,20.57
2018-06-11T02:39:02.945Z,17.07
2018-06-11T02:40:08.402Z,18.27
2018-06-11T02:41:13.865Z,17.37
2018-06-11T02:42:19.311Z,14.30
2018-06-11T02:43:24.909Z,20.67
2018-06-11T02:44:30.313Z,19.03
2018-06-11T02:45:35.770Z,17.90
2018-06-11T02:46:41.224Z,18.30
2018-06-11T02:47:46.633Z,47.97
2018-06-11T02:48:52.528Z,23.40
2018-06-11T02:49:57.957Z,20.40
2018-06-11T02:51:03.366Z,16.23
2018-06-11T02:52:08.764Z,17.10
2018-06-11T02:53:14.306Z,20.27
2018-06-11T02:54:19.760Z,16.80
2018-06-11T02:55:25.390Z,21.40
2018-06-11T02:56:30.568Z,18.70
2018-06-11T02:57:35.913Z,17.00
2018-06-11T02:58:41.308Z,15.97
2018-06-11T02:59:46.820Z,18.80
2018-06-11T03:00:52.269Z,19.77
2018-06-11T03:01:57.705Z,16.10
2018-06-11T03:03:03.247Z,19.23
2018-06-11T03:04:08.661Z,19.00
2018-06-11T03:05:14.317Z,24.53
2018-06-11T03:06:19.741Z,16.70
2018-06-11T03:07:25.236Z,21.07
2018-06-11T03:08:30.649Z,19.17
2018-06-11T03:09:36.073Z,20.50
2018-06-11T03:10:41.698Z,16.30
2018-06-11T03:11:47.121Z,18.97
2018-06-11T03:12:52.634Z,16.90
2018-06-11T03:13:58.047Z,18.77
2018-06-11T03:15:03.497Z,25.53
2018-06-11T03:16:09.030Z,20.13
2018-06-11T03:17:14.451Z,20.27
2018-06-11T03:18:19.907Z,21.67
2018-06-11T03:19:25.309Z,23.53
2018-06-11T03:20:30.706Z,20.90
2018-06-11T03:21:36.121Z,19.43
2018-06-11T03:22:41.532Z,22.60
2018-06-11T03:23:47.309Z,21.47
2018-06-11T03:24:53.360Z,18.67
2018-06-11T03:25:58.834Z,20.80
2018-06-11T03:27:04.281Z,19.40
2018-06-11T03:28:09.970Z,27.53
2018-06-11T03:29:15.406Z,27.10
2018-06-11T03:30:20.797Z,21.10
2018-06-11T03:31:26.400Z,21.53
2018-06-11T03:32:31.809Z,22.50
2018-06-11T03:33:37.221Z,23.03
2018-06-11T03:34:42.629Z,24.17
2018-06-11T03:35:48.042Z,22.27
2018-06-11T03:36:53.461Z,23.50
2018-06-11T03:37:58.914Z,23.00
2018-06-11T03:39:06.737Z,26.17
2018-06-11T03:40:12.196Z,22.87
2018-06-11T03:41:17.612Z,29.13
2018-06-11T03:42:23.061Z,25.80
2018-06-11T03:43:28.457Z,26.17
2018-06-11T03:44:33.975Z,21.40
2018-06-11T03:45:39.479Z,18.70
2018-06-11T03:46:44.917Z,19.47
2018-06-11T03:47:50.341Z,24.50
2018-06-11T03:48:55.775Z,21.73
2018-06-11T03:50:01.271Z,29.00
2018-06-11T03:51:06.977Z,23.03
2018-06-11T03:52:12.401Z,27.27
2018-06-11T03:53:17.841Z,20.27
2018-06-11T03:54:23.252Z,20.20
2018-06-11T03:55:28.668Z,21.47
2018-06-11T03:56:34.112Z,18.40
2018-06-11T03:57:39.510Z,18.87
2018-06-11T03:58:44.962Z,20.70
2018-06-11T03:59:50.602Z,20.07
2018-06-11T04:00:56.174Z,21.73
2018-06-11T04:02:01.655Z,21.73
2018-06-11T04:03:07.133Z,23.07
2018-06-11T04:04:12.646Z,20.27
2018-06-11T04:05:18.346Z,22.30
2018-06-11T04:06:23.825Z,22.40
2018-06-11T04:07:29.333Z,29.37
2018-06-11T04:08:34.759Z,23.50
2018-06-11T04:09:40.200Z,23.90
2018-06-11T04:10:45.733Z,20.57
2018-06-11T04:11:51.168Z,21.07
2018-06-11T04:12:56.695Z,26.07
2018-06-11T04:14:02.166Z,19.17
2018-06-11T04:15:07.791Z,22.13
2018-06-11T04:16:13.740Z,22.10
2018-06-11T04:17:19.190Z,23.97
2018-06-11T04:18:24.793Z,21.20
2018-06-11T04:19:30.228Z,19.93
2018-06-11T04:20:35.634Z,19.50
2018-06-11T04:21:41.101Z,23.83
2018-06-11T04:22:47.095Z,21.27
2018-06-11T04:23:52.595Z,19.23
2018-06-11T04:24:58.001Z,22.63
2018-06-11T04:26:03.445Z,21.63
2018-06-11T04:27:08.975Z,21.87
2018-06-11T04:28:14.410Z,22.70
2018-06-11T04:29:19.809Z,20.47
2018-06-11T04:30:25.950Z,24.37
2018-06-11T04:31:31.453Z,25.10
2018-06-11T04:32:36.894Z,17.43
2018-06-11T04:33:42.316Z,20.03
2018-06-11T04:34:47.734Z,26.73
2018-06-11T04:35:53.198Z,22.50
2018-06-11T04:36:58.677Z,22.73
2018-06-11T04:38:04.128Z,20.63
2018-06-11T04:39:09.725Z,22.37
2018-06-11T04:40:15.173Z,20.87
2018-06-11T04:41:20.559Z,23.37
2018-06-11T04:42:26.022Z,21.10
2018-06-11T04:43:31.660Z,20.40
2018-06-11T04:44:37.066Z,20.60
2018-06-11T04:45:42.508Z,25.90
2018-06-11T04:46:47.917Z,22.40
2018-06-11T04:47:53.602Z,24.50
2018-06-11T04:48:59.100Z,24.73
2018-06-11T04:50:04.610Z,25.90
2018-06-11T04:51:10.054Z,20.40
2018-06-11T04:52:15.492Z,21.07
2018-06-11T04:53:20.904Z,21.20
2018-06-11T04:54:26.445Z,20.33
2018-06-11T04:55:31.861Z,23.93
2018-06-11T04:56:37.289Z,29.50
2018-06-11T04:57:42.686Z,18.00
2018-06-11T04:58:48.115Z,19.80
2018-06-11T04:59:54.077Z,20.10
2018-06-11T05:00:59.501Z,20.30
2018-06-11T05:02:04.949Z,21.97
2018-06-11T05:03:10.383Z,18.80
2018-06-11T05:04:15.867Z,21.53
2018-06-11T05:05:21.589Z,20.40
2018-06-11T05:06:27.055Z,24.10
2018-06-11T05:07:32.228Z,22.17
2018-06-11T05:08:37.534Z,22.20
2018-06-11T05:09:42.928Z,20.37
2018-06-11T05:10:48.338Z,22.73
2018-06-11T05:11:53.741Z,20.40
2018-06-11T05:12:59.383Z,20.90
2018-06-11T05:14:04.902Z,20.03
2018-06-11T05:15:10.285Z,21.93
2018-06-11T05:16:15.435Z,20.33
2018-06-11T05:17:21.084Z,20.23
2018-06-11T05:18:26.549Z,20.83
2018-06-11T05:19:32.022Z,19.57
2018-06-11T05:20:37.894Z,21.10
2018-06-11T05:21:43.038Z,19.87
2018-06-11T05:22:48.328Z,22.40
2018-06-11T05:23:53.775Z,17.80
2018-06-11T05:24:59.204Z,21.87
2018-06-11T05:26:04.667Z,21.10
2018-06-11T05:27:10.279Z,21.20
2018-06-11T05:28:15.701Z,26.10
2018-06-11T05:29:21.137Z,21.83
2018-06-11T05:30:26.577Z,24.33
2018-06-11T05:31:32.004Z,21.67
2018-06-11T05:32:37.580Z,26.77
2018-06-11T05:33:43.062Z,20.30
2018-06-11T05:34:48.476Z,20.63
2018-06-11T05:35:53.906Z,20.60
2018-06-11T05:36:59.339Z,18.37
2018-06-11T05:38:04.901Z,16.40
2018-06-11T05:39:10.450Z,19.07
2018-06-11T05:40:15.939Z,22.13
2018-06-11T05:41:21.329Z,24.40
2018-06-11T05:42:26.775Z,22.17
2018-06-11T05:43:32.379Z,18.77
2018-06-11T05:44:37.811Z,22.20
2018-06-11T05:45:43.277Z,20.47
2018-06-11T05:46:48.689Z,22.13
2018-06-11T05:47:54.155Z,20.47
2018-06-11T05:48:59.980Z,19.87
2018-06-11T05:50:05.481Z,24.00
2018-06-11T05:51:10.898Z,21.43
2018-06-11T05:52:16.306Z,19.17
2018-06-11T05:53:21.745Z,25.43
2018-06-11T05:54:27.203Z,27.13
2018-06-11T05:55:32.647Z,21.67
2018-06-11T05:56:38.076Z,22.93
2018-06-11T05:57:43.750Z,20.87
2018-06-11T05:58:48.919Z,22.23
2018-06-11T05:59:54.282Z,16.73
2018-06-11T06:00:59.689Z,22.43
2018-06-11T06:02:05.534Z,21.50
2018-06-11T06:03:10.958Z,19.33
2018-06-11T06:04:16.721Z,19.70
2018-06-11T06:05:22.153Z,22.47
2018-06-11T06:06:27.657Z,18.23
2018-06-11T06:07:33.649Z,19.60
2018-06-11T06:08:39.163Z,19.57
2018-06-11T06:09:44.333Z,16.33
2018-06-11T06:10:52.096Z,19.43
2018-06-11T06:11:58.735Z,16.23
2018-06-11T06:13:04.436Z,13.23
2018-06-11T06:14:09.909Z,14.40
2018-06-11T06:15:15.302Z,16.20
2018-06-11T06:16:21.181Z,18.40
2018-06-11T06:17:27.079Z,15.67
2018-06-11T06:18:32.656Z,19.70
2018-06-11T06:19:38.093Z,20.53
2018-06-11T06:20:43.529Z,13.00
2018-06-11T06:21:48.955Z,19.70
2018-06-11T06:22:54.409Z,16.10
2018-06-11T06:23:59.884Z,16.43
2018-06-11T06:25:05.345Z,19.37
2018-06-11T06:26:10.777Z,13.17
2018-06-11T06:27:16.233Z,12.53
2018-06-11T06:28:21.661Z,15.40
2018-06-11T06:29:27.177Z,13.47
2018-06-11T06:30:33.093Z,10.00
2018-06-11T06:31:38.503Z,10.70
2018-06-11T06:32:44.034Z,13.83
2018-06-11T06:33:49.633Z,11.90
2018-06-11T06:34:55.093Z,14.17
2018-06-11T06:36:00.501Z,11.00
2018-06-11T06:37:06.336Z,12.17
2018-06-11T06:38:11.838Z,12.67
2018-06-11T06:39:17.329Z,12.67
2018-06-11T06:40:22.770Z,11.13
2018-06-11T06:41:28.171Z,12.37
2018-06-11T06:42:33.582Z,12.00
2018-06-11T06:43:38.983Z,9.93
2018-06-11T06:44:44.769Z,11.40
2018-06-11T06:45:50.193Z,10.20
2018-06-11T06:46:55.642Z,11.43
2018-06-11T06:48:01.050Z,10.17
2018-06-11T06:49:06.472Z,15.13
2018-06-11T06:50:11.889Z,8.40
2018-06-11T06:51:17.284Z,8.37
2018-06-11T06:52:22.758Z,10.30
2018-06-11T06:53:28.147Z,8.57
2018-06-11T06:54:33.537Z,9.23
2018-06-11T06:55:38.949Z,8.40
2018-06-11T06:56:44.365Z,7.00
2018-06-11T06:57:49.846Z,7.97
2018-06-11T06:58:55.280Z,7.47
2018-06-11T07:00:00.689Z,7.23
2018-06-11T07:01:06.200Z,16.73
2018-06-11T07:02:11.609Z,14.10
2018-06-11T07:03:17.044Z,8.97
2018-06-11T07:04:22.579Z,9.13
2018-06-11T07:05:28.042Z,11.20
2018-06-11T07:06:33.703Z,11.13
2018-06-11T07:07:39.289Z,7.63
2018-06-11T07:08:44.697Z,15.27
2018-06-11T07:09:50.123Z,11.20
2018-06-11T07:10:55.525Z,10.30
2018-06-11T07:12:03.207Z,10.10
2018-06-11T07:13:09.206Z,14.50
2018-06-11T07:14:14.901Z,10.73
2018-06-11T07:15:20.309Z,12.13
2018-06-11T07:16:25.769Z,14.43
2018-06-11T07:17:31.210Z,8.57
2018-06-11T07:18:36.610Z,7.27
2018-06-11T07:19:42.101Z,12.80
2018-06-11T07:20:47.511Z,11.60
2018-06-11T07:21:53.110Z,11.13
2018-06-11T07:22:58.529Z,10.63
2018-06-11T07:24:04.045Z,10.23
2018-06-11T07:25:09.562Z,12.60
2018-06-11T07:26:15.074Z,10.37
2018-06-11T07:27:20.625Z,15.30
2018-06-11T07:28:26.082Z,15.03
2018-06-11T07:29:31.519Z,13.67
2018-06-11T07:30:36.942Z,18.17
2018-06-11T07:31:42.350Z,11.77
2018-06-11T07:32:47.825Z,9.43
2018-06-11T07:33:53.279Z,11.43
2018-06-11T07:34:58.682Z,14.27
2018-06-11T07:36:04.098Z,15.73
2018-06-11T07:37:09.502Z,8.10
2018-06-11T07:38:14.918Z,8.80
2018-06-11T07:39:20.325Z,9.67
2018-06-11T07:40:25.742Z,9.13
2018-06-11T07:41:31.154Z,7.37
2018-06-11T07:42:36.691Z,12.77
2018-06-11T07:43:42.169Z,15.43
2018-06-11T07:44:47.583Z,8.60
2018-06-11T07:45:56.300Z,11.20
2018-06-11T07:47:03.958Z,8.87
2018-06-11T07:48:11.701Z,8.10
2018-06-11T07:49:18.095Z,8.70
2018-06-11T07:50:23.658Z,13.93
2018-06-11T07:51:29.086Z,9.63
2018-06-11T07:52:34.494Z,11.83
2018-06-11T07:53:39.957Z,9.47
2018-06-11T07:54:45.366Z,9.33
2018-06-11T07:55:50.818Z,7.90
2018-06-11T07:56:56.245Z,9.07
2018-06-11T07:58:01.679Z,13.87
2018-06-11T07:59:07.265Z,7.47
2018-06-11T08:00:12.674Z,9.33
2018-06-11T08:01:18.133Z,7.80
2018-06-11T08:02:23.502Z,7.20
2018-06-11T08:03:29.233Z,11.93
2018-06-11T08:04:34.785Z,10.63
2018-06-11T08:05:40.297Z,8.23
2018-06-11T08:06:45.722Z,11.13
2018-06-11T08:07:51.165Z,12.40
2018-06-11T08:08:56.677Z,11.57
2018-06-11T08:10:02.113Z,9.20
2018-06-11T08:11:07.528Z,10.63
2018-06-11T08:12:12.936Z,8.50
2018-06-11T08:13:18.328Z,7.80
2018-06-11T08:14:23.767Z,9.23
2018-06-11T08:15:29.438Z,17.43
2018-06-11T08:16:34.882Z,11.57
2018-06-11T08:17:41.068Z,16.33
2018-06-11T08:18:46.490Z,13.70
2018-06-11T08:19:51.930Z,9.00
2018-06-11T08:20:57.326Z,10.57
2018-06-11T08:22:02.725Z,9.23
2018-06-11T08:23:08.673Z,9.23
2018-06-11T08:24:14.133Z,8.70
2018-06-11T08:25:19.553Z,8.80
2018-06-11T08:26:24.970Z,9.00
2018-06-11T08:27:30.425Z,8.57
2018-06-11T08:28:35.783Z,9.57
2018-06-11T08:29:41.201Z,12.83
2018-06-11T08:30:46.621Z,6.47
2018-06-11T08:31:52.080Z,8.03
2018-06-11T08:32:57.505Z,8.90
2018-06-11T08:34:02.917Z,11.93
2018-06-11T08:35:08.370Z,13.20
2018-06-11T08:36:13.778Z,9.57
2018-06-11T08:37:19.205Z,10.30
2018-06-11T08:38:24.618Z,9.63
2018-06-11T08:39:30.035Z,7.43
2018-06-11T08:40:35.424Z,8.27
2018-06-11T08:41:40.826Z,9.63
2018-06-11T08:42:46.286Z,7.33
2018-06-11T08:43:51.713Z,6.20
2018-06-11T08:44:57.324Z,10.70
2018-06-11T08:46:02.781Z,11.27
2018-06-11T08:47:08.212Z,14.03
2018-06-11T08:48:13.637Z,11.20
2018-06-11T08:49:19.029Z,8.80
2018-06-11T08:50:24.670Z,9.23
2018-06-11T08:51:30.154Z,7.53
2018-06-11T08:52:35.625Z,8.80
2018-06-11T08:53:41.078Z,10.40
2018-06-11T08:54:46.605Z,8.03
2018-06-11T08:55:52.044Z,9.10
2018-06-11T08:56:57.465Z,10.50
2018-06-11T08:58:02.981Z,13.27
2018-06-11T08:59:08.366Z,12.50
2018-06-11T09:00:13.816Z,10.30
2018-06-11T09:01:19.234Z,10.13
2018-06-11T09:02:24.673Z,14.03
2018-06-11T09:03:30.162Z,10.30
2018-06-11T09:04:35.654Z,9.67
2018-06-11T09:05:41.068Z,11.27
2018-06-11T09:06:46.969Z,11.30
2018-06-11T09:07:52.394Z,7.10
2018-06-11T09:08:57.838Z,10.53
2018-06-11T09:10:03.313Z,10.70
2018-06-11T09:11:08.761Z,9.57
2018-06-11T09:12:14.274Z,11.43
2018-06-11T09:13:19.694Z,11.50
2018-06-11T09:14:25.146Z,13.23
2018-06-11T09:15:30.541Z,11.07
2018-06-11T09:16:36.032Z,13.77
2018-06-11T09:17:41.474Z,7.57
2018-06-11T09:18:47.003Z,7.70
2018-06-11T09:19:52.394Z,13.13
2018-06-11T09:20:57.822Z,10.13
2018-06-11T09:22:03.745Z,8.53
2018-06-11T09:23:09.143Z,6.40
2018-06-11T09:24:14.551Z,9.00
2018-06-11T09:25:19.945Z,9.37
2018-06-11T09:26:25.349Z,17.03
2018-06-11T09:27:31.055Z,9.13
2018-06-11T09:28:36.471Z,10.53
2018-06-11T09:29:41.945Z,10.50
2018-06-11T09:30:47.388Z,11.13
2018-06-11T09:31:52.829Z,13.03
2018-06-11T09:32:58.378Z,11.97
2018-06-11T09:34:03.795Z,7.00
2018-06-11T09:35:09.314Z,13.77
2018-06-11T09:36:14.736Z,6.13
2018-06-11T09:37:20.158Z,8.40
2018-06-11T09:38:25.767Z,8.80
2018-06-11T09:39:31.164Z,12.87
2018-06-11T09:40:36.586Z,10.20
2018-06-11T09:41:41.678Z,16.00
2018-06-11T09:42:47.082Z,13.63
2018-06-11T09:43:52.859Z,11.73
2018-06-11T09:44:58.139Z,11.07
2018-06-11T09:46:03.589Z,13.50
2018-06-11T09:47:09.046Z,11.07
2018-06-11T09:48:14.430Z,13.13
2018-06-11T09:49:19.855Z,8.63
2018-06-11T09:50:25.640Z,10.60
2018-06-11T09:51:31.204Z,7.23
2018-06-11T09:52:36.616Z,9.80
2018-06-11T09:53:42.012Z,10.27
2018-06-11T09:54:47.421Z,9.23
2018-06-11T09:55:53.113Z,7.83
2018-06-11T09:56:58.932Z,8.47
2018-06-11T09:58:04.533Z,7.50
2018-06-11T09:59:09.966Z,9.23
2018-06-11T10:00:20.583Z,9.37
2018-06-11T10:01:25.978Z,8.93
2018-06-11T10:02:31.438Z,12.97
2018-06-11T10:03:36.914Z,8.20
2018-06-11T10:04:42.354Z,9.07
2018-06-11T10:05:47.750Z,9.90
2018-06-11T10:06:53.533Z,8.73
2018-06-11T10:07:58.931Z,9.87
2018-06-11T10:09:06.482Z,9.00
2018-06-11T10:10:11.900Z,6.73
2018-06-11T10:11:17.355Z,14.57
2018-06-11T10:12:22.904Z,12.00
2018-06-11T10:13:28.353Z,12.23
2018-06-11T10:14:33.786Z,11.07
2018-06-11T10:15:39.172Z,9.10
2018-06-11T10:16:44.586Z,9.87
2018-06-11T10:17:49.994Z,9.13
2018-06-11T10:18:55.525Z,14.03
2018-06-11T10:20:00.949Z,7.70
2018-06-11T10:21:06.802Z,6.20
2018-06-11T10:22:12.213Z,13.33
2018-06-11T10:23:17.641Z,16.50
2018-06-11T10:24:23.105Z,12.00
2018-06-11T10:25:28.520Z,6.70
2018-06-11T10:26:33.969Z,13.30
2018-06-11T10:27:39.637Z,9.77
2018-06-11T10:28:45.280Z,7.60
2018-06-11T10:29:50.750Z,6.57
2018-06-11T10:30:56.466Z,9.10
2018-06-11T10:32:01.921Z,9.10
2018-06-11T10:33:07.604Z,8.00
2018-06-11T10:34:13.089Z,12.80
2018-06-11T10:35:18.725Z,8.10
2018-06-11T10:36:24.421Z,12.73
2018-06-11T10:37:29.874Z,10.37
2018-06-11T10:38:36.228Z,16.77
2018-06-11T10:39:41.770Z,11.93
2018-06-11T10:40:47.414Z,14.40
2018-06-11T10:41:53.171Z,14.20
2018-06-11T10:42:58.869Z,7.47
2018-06-11T10:44:04.404Z,9.00
2018-06-11T10:45:10.091Z,6.93
2018-06-11T10:46:15.513Z,10.40
2018-06-11T10:47:21.486Z,8.93
2018-06-11T10:48:27.149Z,8.03
2018-06-11T10:49:32.558Z,12.73
2018-06-11T10:50:37.988Z,8.37
2018-06-11T10:51:43.541Z,9.87
2018-06-11T10:52:49.112Z,7.23
2018-06-11T10:53:54.806Z,9.57
2018-06-11T10:55:00.404Z,10.57
2018-06-11T10:56:06.007Z,10.33
2018-06-11T10:57:11.920Z,11.30
2018-06-11T10:58:17.499Z,9.70
2018-06-11T10:59:23.574Z,16.73
2018-06-11T11:00:29.254Z,8.83
2018-06-11T11:01:34.766Z,13.60
2018-06-11T11:02:40.178Z,9.03
2018-06-11T11:03:45.840Z,7.83
2018-06-11T11:04:51.322Z,9.00
2018-06-11T11:05:56.995Z,10.90
2018-06-11T11:07:02.414Z,11.60
2018-06-11T11:08:21.756Z,10.13
2018-06-11T11:09:27.326Z,10.40
2018-06-11T11:10:32.825Z,11.27
2018-06-11T11:11:38.241Z,12.27
2018-06-11T11:12:43.672Z,12.43
2018-06-11T11:13:50.115Z,14.00
2018-06-11T11:14:55.615Z,12.00
2018-06-11T11:16:01.225Z,12.23
2018-06-11T11:17:06.738Z,8.70
2018-06-11T11:18:12.223Z,9.67
2018-06-11T11:19:18.255Z,9.60
2018-06-11T11:20:23.697Z,9.17
2018-06-11T11:21:29.416Z,6.37
2018-06-11T11:22:34.994Z,8.07
2018-06-11T11:23:40.481Z,10.77
2018-06-11T11:24:46.050Z,9.03
2018-06-11T11:25:51.737Z,9.67
2018-06-11T11:26:57.270Z,9.83
2018-06-11T11:28:03.258Z,10.43
2018-06-11T11:29:08.738Z,11.60
2018-06-11T11:30:14.377Z,7.83
2018-06-11T11:31:19.880Z,15.13
2018-06-11T11:32:25.382Z,10.13
2018-06-11T11:33:31.426Z,11.77
2018-06-11T11:34:37.050Z,8.67
2018-06-11T11:35:42.449Z,12.80
2018-06-11T11:36:48.281Z,12.83
2018-06-11T11:37:53.813Z,10.83
2018-06-11T11:38:59.472Z,9.60
2018-06-11T11:40:05.050Z,14.17
2018-06-11T11:41:10.694Z,12.00
2018-06-11T11:42:16.373Z,8.57
2018-06-11T11:43:21.942Z,9.40
2018-06-11T11:44:27.562Z,12.23
2018-06-11T11:45:32.958Z,9.93
2018-06-11T11:46:38.346Z,9.70
2018-06-11T11:47:43.745Z,14.70
2018-06-11T11:48:50.313Z,13.83
2018-06-11T11:49:56.337Z,9.33
2018-06-11T11:51:01.755Z,12.50
2018-06-11T11:52:07.245Z,14.97
2018-06-11T11:53:12.613Z,9.10
2018-06-11T11:54:18.025Z,9.87
2018-06-11T11:55:23.902Z,12.40
2018-06-11T11:56:29.526Z,12.07
2018-06-11T11:57:35.021Z,9.67
2018-06-11T11:58:40.228Z,10.13
2018-06-11T11:59:45.934Z,7.33
2018-06-11T12:00:52.397Z,7.90
2018-06-11T12:02:00.275Z,11.27
2018-06-11T12:03:06.468Z,19.43
2018-06-11T12:04:13.967Z,10.70
2018-06-11T12:05:19.786Z,13.63
2018-06-11T12:06:30.755Z,11.40
2018-06-11T12:07:37.156Z,9.80
2018-06-11T12:08:42.585Z,15.43
2018-06-11T12:09:48.001Z,8.80
2018-06-11T12:10:53.682Z,10.33
2018-06-11T12:11:59.261Z,11.40
2018-06-11T12:13:04.801Z,13.53
2018-06-11T12:14:10.530Z,11.10
2018-06-11T12:15:16.045Z,11.80
2018-06-11T12:16:21.727Z,9.73
2018-06-11T12:17:27.422Z,14.57
2018-06-11T12:18:32.898Z,10.70
2018-06-11T12:19:38.465Z,9.70
2018-06-11T12:20:43.979Z,10.13
2018-06-11T12:21:49.557Z,11.03
2018-06-11T12:22:55.026Z,8.20
2018-06-11T12:24:00.457Z,8.23
2018-06-11T12:25:06.350Z,14.23
2018-06-11T12:26:11.995Z,9.37
2018-06-11T12:27:17.388Z,16.03
2018-06-11T12:28:23.037Z,10.97
2018-06-11T12:29:28.448Z,8.60
2018-06-11T12:30:34.077Z,11.90
2018-06-11T12:31:40.181Z,10.00
2018-06-11T12:32:45.583Z,8.90
2018-06-11T12:33:50.982Z,7.63
2018-06-11T12:34:56.594Z,7.73
2018-06-11T12:36:02.035Z,9.33
2018-06-11T12:37:07.493Z,10.93
2018-06-11T12:38:12.909Z,8.73
2018-06-11T12:39:19.583Z,11.17
2018-06-11T12:40:26.010Z,11.17
2018-06-11T12:41:32.880Z,13.57
2018-06-11T12:42:38.346Z,12.80
2018-06-11T12:43:43.751Z,11.10
2018-06-11T12:44:49.474Z,8.93
2018-06-11T12:45:55.082Z,14.67
2018-06-11T12:47:00.905Z,11.20
2018-06-11T12:48:06.534Z,11.10
2018-06-11T12:49:11.969Z,8.53
2018-06-11T12:50:17.402Z,6.90
2018-06-11T12:51:22.809Z,9.37
2018-06-11T12:52:28.665Z,12.60
2018-06-11T12:53:34.262Z,12.33
2018-06-11T12:54:39.821Z,8.90
2018-06-11T12:55:45.431Z,6.87
2018-06-11T12:56:51.025Z,7.77
2018-06-11T12:57:57.454Z,10.80
2018-06-11T12:59:02.877Z,8.03
2018-06-11T13:00:08.486Z,7.53
2018-06-11T13:01:14.065Z,8.30
2018-06-11T13:02:19.665Z,7.60
2018-06-11T13:03:25.228Z,8.77
2018-06-11T13:04:30.710Z,7.73
2018-06-11T13:05:36.181Z,10.53
2018-06-11T13:06:41.881Z,10.57
2018-06-11T13:07:47.557Z,9.80
2018-06-11T13:08:53.437Z,15.70
2018-06-11T13:09:59.049Z,8.57
2018-06-11T13:11:04.659Z,6.20
2018-06-11T13:12:10.277Z,9.87
2018-06-11T13:13:15.911Z,9.23
2018-06-11T13:14:21.608Z,9.57
2018-06-11T13:15:27.217Z,14.87
2018-06-11T13:16:32.864Z,7.33
2018-06-11T13:17:38.303Z,10.20
2018-06-11T13:18:44.041Z,7.77
2018-06-11T13:19:49.566Z,7.90
2018-06-11T13:20:55.495Z,7.17
2018-06-11T13:22:01.031Z,11.53
2018-06-11T13:23:06.891Z,8.57
2018-06-11T13:24:12.342Z,6.67
2018-06-11T13:25:17.726Z,9.30
2018-06-11T13:26:23.348Z,17.43
2018-06-11T13:27:28.837Z,8.90
2018-06-11T13:28:34.467Z,6.50
2018-06-11T13:29:39.884Z,8.23
2018-06-11T13:30:45.541Z,5.60
2018-06-11T13:31:51.110Z,5.80
2018-06-11T13:32:56.693Z,6.80
2018-06-11T13:34:02.126Z,7.37
2018-06-11T13:35:07.802Z,6.87
2018-06-11T13:36:13.353Z,9.00
2018-06-11T13:37:19.101Z,9.80
2018-06-11T13:38:24.777Z,15.43
2018-06-11T13:39:30.925Z,7.27
2018-06-11T13:40:36.361Z,7.70
2018-06-11T13:41:41.816Z,8.53
2018-06-11T13:42:47.345Z,6.37
2018-06-11T13:43:52.808Z,8.83
2018-06-11T13:44:58.612Z,9.03
2018-06-11T13:46:04.109Z,12.90
2018-06-11T13:47:09.853Z,11.20
2018-06-11T13:48:15.693Z,6.93
2018-06-11T13:49:21.673Z,4.77
2018-06-11T13:50:27.177Z,9.53
2018-06-11T13:51:32.767Z,7.10
2018-06-11T13:52:38.364Z,8.23
2018-06-11T13:53:43.825Z,6.60
2018-06-11T13:54:49.309Z,8.63
2018-06-11T13:55:55.341Z,9.97
2018-06-11T13:57:01.223Z,5.60
2018-06-11T13:58:06.789Z,5.70
2018-06-11T13:59:12.460Z,11.60
2018-06-11T14:00:17.925Z,8.73
2018-06-11T14:01:23.961Z,7.40
2018-06-11T14:02:29.642Z,14.50
2018-06-11T14:03:35.103Z,7.10
2018-06-11T14:04:40.493Z,13.60
2018-06-11T14:05:46.011Z,6.50
2018-06-11T14:06:51.795Z,8.03
2018-06-11T14:07:57.194Z,7.30
2018-06-11T14:09:02.679Z,7.93
2018-06-11T14:10:08.086Z,5.87
2018-06-11T14:11:13.493Z,6.60
2018-06-11T14:12:19.082Z,6.00